sensor_id;sensor_type;location;lat;lon;timestamp;temperature;humidity
736;DHT22;352;48.626;9.238;2023-04-03T00:01:44;5.70;99.90
736;DHT22;352;48.626;9.238;2023-04-03T00:04:11;5.70;99.90
736;DHT22;352;48.626;9.238;2023-04-03T00:06:39;5.70;99.90
736;DHT22;352;48.626;9.238;2023-04-03T00:09:05;5.60;99.90
736;DHT22;352;48.626;9.238;2023-04-03T00:11:39;5.60;99.90
736;DHT22;352;48.626;9.238;2023-04-03T00:14:06;5.50;99.90
736;DHT22;352;48.626;9.238;2023-04-03T00:16:36;5.60;99.90
736;DHT22;352;48.626;9.238;2023-04-03T00:19:02;5.50;99.90
736;DHT22;352;48.626;9.238;2023-04-03T00:21:29;5.50;99.90
736;DHT22;352;48.626;9.238;2023-04-03T00:23:57;5.50;99.90
736;DHT22;352;48.626;9.238;2023-04-03T00:26:24;5.50;99.90
736;DHT22;352;48.626;9.238;2023-04-03T00:28:50;5.50;99.90
736;DHT22;352;48.626;9.238;2023-04-03T00:31:17;5.50;99.90
736;DHT22;352;48.626;9.238;2023-04-03T00:33:44;5.40;99.90
736;DHT22;352;48.626;9.238;2023-04-03T00:36:11;5.50;99.90
736;DHT22;352;48.626;9.238;2023-04-03T00:38:43;5.50;99.90
736;DHT22;352;48.626;9.238;2023-04-03T00:41:11;5.40;99.90
736;DHT22;352;48.626;9.238;2023-04-03T00:43:38;5.40;99.90
736;DHT22;352;48.626;9.238;2023-04-03T00:46:05;5.40;99.90
736;DHT22;352;48.626;9.238;2023-04-03T00:48:38;5.40;99.90
736;DHT22;352;48.626;9.238;2023-04-03T00:51:08;5.30;99.90
736;DHT22;352;48.626;9.238;2023-04-03T00:53:42;5.30;99.90
736;DHT22;352;48.626;9.238;2023-04-03T00:56:14;5.30;99.90
736;DHT22;352;48.626;9.238;2023-04-03T00:58:45;5.30;99.90
736;DHT22;352;48.626;9.238;2023-04-03T01:01:20;5.30;99.90
736;DHT22;352;48.626;9.238;2023-04-03T01:03:48;5.30;99.90
736;DHT22;352;48.626;9.238;2023-04-03T01:06:23;5.30;99.90
736;DHT22;352;48.626;9.238;2023-04-03T01:08:55;5.30;99.90
736;DHT22;352;48.626;9.238;2023-04-03T01:11:23;5.20;99.90
736;DHT22;352;48.626;9.238;2023-04-03T01:13:50;5.20;99.90
736;DHT22;352;48.626;9.238;2023-04-03T01:16:17;5.30;99.90
736;DHT22;352;48.626;9.238;2023-04-03T01:18:44;5.30;99.90
736;DHT22;352;48.626;9.238;2023-04-03T01:21:38;5.30;99.90
736;DHT22;352;48.626;9.238;2023-04-03T01:24:21;5.30;99.90
736;DHT22;352;48.626;9.238;2023-04-03T01:26:49;5.20;99.90
736;DHT22;352;48.626;9.238;2023-04-03T01:29:16;5.20;99.90
736;DHT22;352;48.626;9.238;2023-04-03T01:31:50;5.20;99.90
736;DHT22;352;48.626;9.238;2023-04-03T01:34:17;5.30;99.90
736;DHT22;352;48.626;9.238;2023-04-03T01:36:44;5.20;99.90
736;DHT22;352;48.626;9.238;2023-04-03T01:39:11;5.20;99.90
736;DHT22;352;48.626;9.238;2023-04-03T01:41:38;5.20;99.90
736;DHT22;352;48.626;9.238;2023-04-03T01:44:05;5.20;99.90
736;DHT22;352;48.626;9.238;2023-04-03T01:46:32;5.30;99.90
736;DHT22;352;48.626;9.238;2023-04-03T01:49:00;5.20;99.90
736;DHT22;352;48.626;9.238;2023-04-03T01:51:27;5.20;99.90
736;DHT22;352;48.626;9.238;2023-04-03T01:53:54;5.20;99.90
736;DHT22;352;48.626;9.238;2023-04-03T01:56:21;5.10;99.90
736;DHT22;352;48.626;9.238;2023-04-03T01:58:47;5.10;99.90
736;DHT22;352;48.626;9.238;2023-04-03T02:01:14;5.00;99.90
736;DHT22;352;48.626;9.238;2023-04-03T02:03:41;5.00;99.90
736;DHT22;352;48.626;9.238;2023-04-03T02:06:09;5.00;99.90
736;DHT22;352;48.626;9.238;2023-04-03T02:08:36;4.90;99.90
736;DHT22;352;48.626;9.238;2023-04-03T02:11:03;4.90;99.90
736;DHT22;352;48.626;9.238;2023-04-03T02:13:29;4.90;99.90
736;DHT22;352;48.626;9.238;2023-04-03T02:15:56;4.90;99.90
736;DHT22;352;48.626;9.238;2023-04-03T02:18:23;4.90;99.90
736;DHT22;352;48.626;9.238;2023-04-03T02:20:49;4.90;99.90
736;DHT22;352;48.626;9.238;2023-04-03T02:23:18;5.00;99.90
736;DHT22;352;48.626;9.238;2023-04-03T02:25:44;4.90;99.90
736;DHT22;352;48.626;9.238;2023-04-03T02:28:11;5.00;99.90
736;DHT22;352;48.626;9.238;2023-04-03T02:30:38;5.00;99.90
736;DHT22;352;48.626;9.238;2023-04-03T02:33:04;5.00;99.90
736;DHT22;352;48.626;9.238;2023-04-03T02:35:31;5.00;99.90
736;DHT22;352;48.626;9.238;2023-04-03T02:37:58;5.00;99.90
736;DHT22;352;48.626;9.238;2023-04-03T02:40:26;5.00;99.90
736;DHT22;352;48.626;9.238;2023-04-03T02:42:52;5.00;99.90
736;DHT22;352;48.626;9.238;2023-04-03T02:45:19;5.00;99.90
736;DHT22;352;48.626;9.238;2023-04-03T02:47:46;5.00;99.90
736;DHT22;352;48.626;9.238;2023-04-03T02:50:13;5.00;99.90
736;DHT22;352;48.626;9.238;2023-04-03T02:52:39;5.00;99.90
736;DHT22;352;48.626;9.238;2023-04-03T02:55:07;5.00;99.90
736;DHT22;352;48.626;9.238;2023-04-03T02:57:35;5.00;99.90
736;DHT22;352;48.626;9.238;2023-04-03T03:00:02;5.00;99.90
736;DHT22;352;48.626;9.238;2023-04-03T03:02:29;5.00;99.90
736;DHT22;352;48.626;9.238;2023-04-03T03:04:55;5.10;99.90
736;DHT22;352;48.626;9.238;2023-04-03T03:07:22;5.10;99.90
736;DHT22;352;48.626;9.238;2023-04-03T03:09:49;5.00;99.90
736;DHT22;352;48.626;9.238;2023-04-03T03:12:16;5.10;99.90
736;DHT22;352;48.626;9.238;2023-04-03T03:14:48;5.10;99.90
736;DHT22;352;48.626;9.238;2023-04-03T03:17:14;5.00;99.90
736;DHT22;352;48.626;9.238;2023-04-03T03:19:41;5.00;99.90
736;DHT22;352;48.626;9.238;2023-04-03T03:22:08;5.00;99.90
736;DHT22;352;48.626;9.238;2023-04-03T03:24:34;5.10;99.90
736;DHT22;352;48.626;9.238;2023-04-03T03:27:02;5.10;99.90
736;DHT22;352;48.626;9.238;2023-04-03T03:29:28;5.00;99.90
736;DHT22;352;48.626;9.238;2023-04-03T03:31:56;5.10;99.90
736;DHT22;352;48.626;9.238;2023-04-03T03:34:23;5.00;99.90
736;DHT22;352;48.626;9.238;2023-04-03T03:36:50;5.00;99.90
736;DHT22;352;48.626;9.238;2023-04-03T03:39:17;5.00;99.90
736;DHT22;352;48.626;9.238;2023-04-03T03:41:43;5.10;99.90
736;DHT22;352;48.626;9.238;2023-04-03T03:44:10;5.00;99.90
736;DHT22;352;48.626;9.238;2023-04-03T03:46:37;5.00;99.90
736;DHT22;352;48.626;9.238;2023-04-03T03:49:05;5.00;99.90
736;DHT22;352;48.626;9.238;2023-04-03T03:51:31;5.00;99.90
736;DHT22;352;48.626;9.238;2023-04-03T03:53:58;4.90;99.90
736;DHT22;352;48.626;9.238;2023-04-03T03:56:25;5.00;99.90
736;DHT22;352;48.626;9.238;2023-04-03T03:58:52;5.00;99.90
736;DHT22;352;48.626;9.238;2023-04-03T04:01:18;5.00;99.90
736;DHT22;352;48.626;9.238;2023-04-03T04:03:45;5.00;99.90
736;DHT22;352;48.626;9.238;2023-04-03T04:06:13;5.00;99.90
736;DHT22;352;48.626;9.238;2023-04-03T04:08:40;4.90;99.90
736;DHT22;352;48.626;9.238;2023-04-03T04:11:07;5.00;99.90
736;DHT22;352;48.626;9.238;2023-04-03T04:13:34;5.00;99.90
736;DHT22;352;48.626;9.238;2023-04-03T04:16:01;5.00;99.90
736;DHT22;352;48.626;9.238;2023-04-03T04:18:28;4.90;99.90
736;DHT22;352;48.626;9.238;2023-04-03T04:20:54;5.00;99.90
736;DHT22;352;48.626;9.238;2023-04-03T04:23:22;5.00;99.90
736;DHT22;352;48.626;9.238;2023-04-03T04:25:49;5.00;99.90
736;DHT22;352;48.626;9.238;2023-04-03T04:28:16;5.00;99.90
736;DHT22;352;48.626;9.238;2023-04-03T04:30:43;5.00;99.90
736;DHT22;352;48.626;9.238;2023-04-03T04:33:10;5.10;99.90
736;DHT22;352;48.626;9.238;2023-04-03T04:35:37;5.10;99.90
736;DHT22;352;48.626;9.238;2023-04-03T04:38:03;5.10;99.90
736;DHT22;352;48.626;9.238;2023-04-03T04:40:31;5.00;99.90
736;DHT22;352;48.626;9.238;2023-04-03T04:42:59;5.10;99.90
736;DHT22;352;48.626;9.238;2023-04-03T04:45:26;5.10;99.90
736;DHT22;352;48.626;9.238;2023-04-03T04:47:55;5.00;99.90
736;DHT22;352;48.626;9.238;2023-04-03T04:50:21;5.00;99.90
736;DHT22;352;48.626;9.238;2023-04-03T04:52:48;5.00;99.90
736;DHT22;352;48.626;9.238;2023-04-03T04:55:15;5.00;99.90
736;DHT22;352;48.626;9.238;2023-04-03T04:57:43;5.10;99.90
736;DHT22;352;48.626;9.238;2023-04-03T05:00:11;5.00;99.90
736;DHT22;352;48.626;9.238;2023-04-03T05:02:37;5.10;99.90
736;DHT22;352;48.626;9.238;2023-04-03T05:05:04;5.10;99.90
736;DHT22;352;48.626;9.238;2023-04-03T05:07:31;5.10;99.90
736;DHT22;352;48.626;9.238;2023-04-03T05:09:58;5.10;99.90
736;DHT22;352;48.626;9.238;2023-04-03T05:12:25;5.10;99.90
736;DHT22;352;48.626;9.238;2023-04-03T05:14:53;5.10;99.90
736;DHT22;352;48.626;9.238;2023-04-03T05:17:19;5.10;99.90
736;DHT22;352;48.626;9.238;2023-04-03T05:19:46;5.10;99.90
736;DHT22;352;48.626;9.238;2023-04-03T05:22:13;5.20;99.90
736;DHT22;352;48.626;9.238;2023-04-03T05:24:40;5.20;99.90
736;DHT22;352;48.626;9.238;2023-04-03T05:27:07;5.20;99.90
736;DHT22;352;48.626;9.238;2023-04-03T05:29:33;5.20;99.90
736;DHT22;352;48.626;9.238;2023-04-03T05:32:01;5.20;99.90
736;DHT22;352;48.626;9.238;2023-04-03T05:34:28;5.20;99.90
736;DHT22;352;48.626;9.238;2023-04-03T05:36:55;5.20;99.90
736;DHT22;352;48.626;9.238;2023-04-03T05:39:22;5.20;99.90
736;DHT22;352;48.626;9.238;2023-04-03T05:41:49;5.30;99.90
736;DHT22;352;48.626;9.238;2023-04-03T05:44:16;5.30;99.90
736;DHT22;352;48.626;9.238;2023-04-03T05:46:42;5.30;99.90
736;DHT22;352;48.626;9.238;2023-04-03T05:49:10;5.30;99.90
736;DHT22;352;48.626;9.238;2023-04-03T05:51:38;5.30;99.90
736;DHT22;352;48.626;9.238;2023-04-03T05:54:09;5.30;99.90
736;DHT22;352;48.626;9.238;2023-04-03T05:56:38;5.40;99.90
736;DHT22;352;48.626;9.238;2023-04-03T05:59:05;5.40;99.90
736;DHT22;352;48.626;9.238;2023-04-03T06:01:32;5.40;99.90
736;DHT22;352;48.626;9.238;2023-04-03T06:03:59;5.50;99.90
736;DHT22;352;48.626;9.238;2023-04-03T06:06:43;5.50;99.90
736;DHT22;352;48.626;9.238;2023-04-03T06:09:09;5.50;99.90
736;DHT22;352;48.626;9.238;2023-04-03T06:11:36;5.50;99.90
736;DHT22;352;48.626;9.238;2023-04-03T06:14:03;5.50;99.90
736;DHT22;352;48.626;9.238;2023-04-03T06:16:29;5.50;99.90
736;DHT22;352;48.626;9.238;2023-04-03T06:18:56;5.40;99.90
736;DHT22;352;48.626;9.238;2023-04-03T06:21:23;5.50;99.90
736;DHT22;352;48.626;9.238;2023-04-03T06:23:51;5.40;99.90
736;DHT22;352;48.626;9.238;2023-04-03T06:26:17;5.30;99.90
736;DHT22;352;48.626;9.238;2023-04-03T06:28:44;5.30;99.90
736;DHT22;352;48.626;9.238;2023-04-03T06:31:11;5.30;99.90
736;DHT22;352;48.626;9.238;2023-04-03T06:33:37;5.40;99.90
736;DHT22;352;48.626;9.238;2023-04-03T06:36:05;5.50;99.90
736;DHT22;352;48.626;9.238;2023-04-03T06:38:33;5.50;99.90
736;DHT22;352;48.626;9.238;2023-04-03T06:41:01;5.60;99.90
736;DHT22;352;48.626;9.238;2023-04-03T06:43:28;5.50;99.90
736;DHT22;352;48.626;9.238;2023-04-03T06:45:56;5.60;99.90
736;DHT22;352;48.626;9.238;2023-04-03T06:48:23;5.60;99.90
736;DHT22;352;48.626;9.238;2023-04-03T06:50:50;5.60;99.90
736;DHT22;352;48.626;9.238;2023-04-03T06:53:17;5.70;99.90
736;DHT22;352;48.626;9.238;2023-04-03T06:55:44;5.70;99.90
736;DHT22;352;48.626;9.238;2023-04-03T06:58:13;5.70;99.90
736;DHT22;352;48.626;9.238;2023-04-03T07:00:42;5.80;99.90
736;DHT22;352;48.626;9.238;2023-04-03T07:03:09;5.90;99.90
736;DHT22;352;48.626;9.238;2023-04-03T07:05:36;6.00;99.90
736;DHT22;352;48.626;9.238;2023-04-03T07:08:03;6.10;99.90
736;DHT22;352;48.626;9.238;2023-04-03T07:10:29;6.20;99.90
736;DHT22;352;48.626;9.238;2023-04-03T07:12:57;6.30;99.90
736;DHT22;352;48.626;9.238;2023-04-03T07:15:25;6.30;99.90
736;DHT22;352;48.626;9.238;2023-04-03T07:17:51;6.30;99.90
736;DHT22;352;48.626;9.238;2023-04-03T07:20:18;6.30;99.80
736;DHT22;352;48.626;9.238;2023-04-03T07:22:45;6.20;99.60
736;DHT22;352;48.626;9.238;2023-04-03T07:25:11;6.20;99.80
736;DHT22;352;48.626;9.238;2023-04-03T07:27:38;6.30;99.90
736;DHT22;352;48.626;9.238;2023-04-03T07:30:06;6.40;99.70
736;DHT22;352;48.626;9.238;2023-04-03T07:32:34;6.40;99.80
736;DHT22;352;48.626;9.238;2023-04-03T07:35:02;6.40;99.60
736;DHT22;352;48.626;9.238;2023-04-03T07:37:29;6.50;99.60
736;DHT22;352;48.626;9.238;2023-04-03T07:39:56;6.60;99.60
736;DHT22;352;48.626;9.238;2023-04-03T07:42:24;6.70;99.50
736;DHT22;352;48.626;9.238;2023-04-03T07:44:53;6.80;99.70
736;DHT22;352;48.626;9.238;2023-04-03T07:47:20;6.80;99.70
736;DHT22;352;48.626;9.238;2023-04-03T07:49:48;7.00;99.40
736;DHT22;352;48.626;9.238;2023-04-03T07:52:15;7.00;98.70
736;DHT22;352;48.626;9.238;2023-04-03T07:54:42;7.00;98.80
736;DHT22;352;48.626;9.238;2023-04-03T07:57:08;7.10;99.00
736;DHT22;352;48.626;9.238;2023-04-03T07:59:35;7.20;99.10
736;DHT22;352;48.626;9.238;2023-04-03T08:02:02;7.20;98.80
736;DHT22;352;48.626;9.238;2023-04-03T08:04:30;7.20;98.80
736;DHT22;352;48.626;9.238;2023-04-03T08:06:58;7.30;98.90
736;DHT22;352;48.626;9.238;2023-04-03T08:09:25;7.30;98.30
736;DHT22;352;48.626;9.238;2023-04-03T08:11:51;7.40;98.50
736;DHT22;352;48.626;9.238;2023-04-03T08:14:19;7.60;98.30
736;DHT22;352;48.626;9.238;2023-04-03T08:16:46;7.70;98.30
736;DHT22;352;48.626;9.238;2023-04-03T08:19:14;7.80;97.60
736;DHT22;352;48.626;9.238;2023-04-03T08:21:42;7.90;97.90
736;DHT22;352;48.626;9.238;2023-04-03T08:24:11;7.90;97.90
736;DHT22;352;48.626;9.238;2023-04-03T08:26:38;8.10;97.70
736;DHT22;352;48.626;9.238;2023-04-03T08:29:05;8.10;97.50
736;DHT22;352;48.626;9.238;2023-04-03T08:31:31;8.20;97.50
736;DHT22;352;48.626;9.238;2023-04-03T08:33:58;8.40;97.30
736;DHT22;352;48.626;9.238;2023-04-03T08:36:27;8.40;96.90
736;DHT22;352;48.626;9.238;2023-04-03T08:38:55;8.40;96.40
736;DHT22;352;48.626;9.238;2023-04-03T08:41:29;8.60;96.30
736;DHT22;352;48.626;9.238;2023-04-03T08:44:20;8.70;96.20
736;DHT22;352;48.626;9.238;2023-04-03T08:47:01;9.00;95.80
736;DHT22;352;48.626;9.238;2023-04-03T08:49:32;9.00;95.30
736;DHT22;352;48.626;9.238;2023-04-03T08:52:04;9.20;95.30
736;DHT22;352;48.626;9.238;2023-04-03T08:54:34;9.60;95.60
736;DHT22;352;48.626;9.238;2023-04-03T08:57:04;10.20;93.80
736;DHT22;352;48.626;9.238;2023-04-03T08:59:34;10.70;92.70
736;DHT22;352;48.626;9.238;2023-04-03T09:02:12;10.80;92.10
736;DHT22;352;48.626;9.238;2023-04-03T09:04:43;10.70;91.80
736;DHT22;352;48.626;9.238;2023-04-03T09:07:14;10.80;92.20
736;DHT22;352;48.626;9.238;2023-04-03T09:09:42;10.60;92.10
736;DHT22;352;48.626;9.238;2023-04-03T09:12:18;10.60;92.00
736;DHT22;352;48.626;9.238;2023-04-03T09:14:55;10.50;92.30
736;DHT22;352;48.626;9.238;2023-04-03T09:17:34;10.30;91.40
736;DHT22;352;48.626;9.238;2023-04-03T09:20:11;10.10;91.00
736;DHT22;352;48.626;9.238;2023-04-03T09:22:42;9.80;92.00
736;DHT22;352;48.626;9.238;2023-04-03T09:25:13;9.60;92.30
736;DHT22;352;48.626;9.238;2023-04-03T09:27:41;9.50;93.40
736;DHT22;352;48.626;9.238;2023-04-03T09:30:13;9.30;93.50
736;DHT22;352;48.626;9.238;2023-04-03T09:32:41;9.10;94.10
736;DHT22;352;48.626;9.238;2023-04-03T09:35:19;8.80;94.50
736;DHT22;352;48.626;9.238;2023-04-03T09:37:48;8.70;94.20
736;DHT22;352;48.626;9.238;2023-04-03T09:40:30;8.70;95.00
736;DHT22;352;48.626;9.238;2023-04-03T09:43:04;8.60;94.30
736;DHT22;352;48.626;9.238;2023-04-03T09:45:47;8.60;94.00
736;DHT22;352;48.626;9.238;2023-04-03T09:48:17;8.60;93.80
736;DHT22;352;48.626;9.238;2023-04-03T09:50:56;8.70;93.60
736;DHT22;352;48.626;9.238;2023-04-03T09:53:33;8.60;94.00
736;DHT22;352;48.626;9.238;2023-04-03T09:56:03;8.60;93.60
736;DHT22;352;48.626;9.238;2023-04-03T09:58:33;8.60;93.30
736;DHT22;352;48.626;9.238;2023-04-03T10:01:02;8.50;93.60
736;DHT22;352;48.626;9.238;2023-04-03T10:03:31;8.60;93.20
736;DHT22;352;48.626;9.238;2023-04-03T10:06:00;8.60;93.10
736;DHT22;352;48.626;9.238;2023-04-03T10:08:29;8.50;93.10
736;DHT22;352;48.626;9.238;2023-04-03T10:11:08;8.50;92.60
736;DHT22;352;48.626;9.238;2023-04-03T10:13:49;8.50;92.80
736;DHT22;352;48.626;9.238;2023-04-03T10:16:18;8.50;92.80
736;DHT22;352;48.626;9.238;2023-04-03T10:18:52;8.50;91.50
736;DHT22;352;48.626;9.238;2023-04-03T10:21:32;8.40;91.20
736;DHT22;352;48.626;9.238;2023-04-03T10:24:08;8.50;91.40
736;DHT22;352;48.626;9.238;2023-04-03T10:26:41;8.70;90.70
736;DHT22;352;48.626;9.238;2023-04-03T10:29:20;8.70;90.90
736;DHT22;352;48.626;9.238;2023-04-03T10:31:55;8.70;90.60
736;DHT22;352;48.626;9.238;2023-04-03T10:34:28;8.70;90.50
736;DHT22;352;48.626;9.238;2023-04-03T10:37:01;8.90;89.60
736;DHT22;352;48.626;9.238;2023-04-03T10:39:36;8.90;88.10
736;DHT22;352;48.626;9.238;2023-04-03T10:42:11;9.00;88.80
736;DHT22;352;48.626;9.238;2023-04-03T10:44:57;8.80;88.90
736;DHT22;352;48.626;9.238;2023-04-03T10:47:32;8.90;90.10
736;DHT22;352;48.626;9.238;2023-04-03T10:50:12;9.00;87.50
736;DHT22;352;48.626;9.238;2023-04-03T10:52:50;8.90;88.20
736;DHT22;352;48.626;9.238;2023-04-03T10:55:28;8.90;87.10
736;DHT22;352;48.626;9.238;2023-04-03T10:57:59;8.90;87.70
736;DHT22;352;48.626;9.238;2023-04-03T11:00:35;9.00;85.40
736;DHT22;352;48.626;9.238;2023-04-03T11:03:06;8.90;86.40
736;DHT22;352;48.626;9.238;2023-04-03T11:05:37;8.90;88.80
736;DHT22;352;48.626;9.238;2023-04-03T11:08:27;9.00;89.10
736;DHT22;352;48.626;9.238;2023-04-03T11:10:57;8.90;89.50
736;DHT22;352;48.626;9.238;2023-04-03T11:13:30;9.00;90.40
736;DHT22;352;48.626;9.238;2023-04-03T11:16:00;9.00;90.20
736;DHT22;352;48.626;9.238;2023-04-03T11:18:32;8.90;90.40
736;DHT22;352;48.626;9.238;2023-04-03T11:21:06;8.90;90.20
736;DHT22;352;48.626;9.238;2023-04-03T11:23:36;8.80;90.10
736;DHT22;352;48.626;9.238;2023-04-03T11:26:14;8.80;89.30
736;DHT22;352;48.626;9.238;2023-04-03T11:28:42;8.80;90.70
736;DHT22;352;48.626;9.238;2023-04-03T11:31:20;8.90;92.80
736;DHT22;352;48.626;9.238;2023-04-03T11:33:56;8.80;92.00
736;DHT22;352;48.626;9.238;2023-04-03T11:36:29;8.90;92.60
736;DHT22;352;48.626;9.238;2023-04-03T11:38:58;8.80;92.50
736;DHT22;352;48.626;9.238;2023-04-03T11:41:29;8.80;92.60
736;DHT22;352;48.626;9.238;2023-04-03T11:43:59;8.80;91.80
736;DHT22;352;48.626;9.238;2023-04-03T11:46:52;8.90;91.90
736;DHT22;352;48.626;9.238;2023-04-03T11:52:57;9.00;91.40
736;DHT22;352;48.626;9.238;2023-04-03T11:55:52;8.90;90.50
736;DHT22;352;48.626;9.238;2023-04-03T11:58:23;8.90;89.80
736;DHT22;352;48.626;9.238;2023-04-03T12:00:56;8.90;90.20
736;DHT22;352;48.626;9.238;2023-04-03T12:04:04;8.80;89.70
736;DHT22;352;48.626;9.238;2023-04-03T12:06:57;8.90;90.10
736;DHT22;352;48.626;9.238;2023-04-03T12:09:56;8.90;90.00
736;DHT22;352;48.626;9.238;2023-04-03T12:12:35;9.00;90.40
736;DHT22;352;48.626;9.238;2023-04-03T12:15:18;8.90;90.00
736;DHT22;352;48.626;9.238;2023-04-03T12:17:46;8.80;89.50
736;DHT22;352;48.626;9.238;2023-04-03T12:23:26;8.80;89.30
736;DHT22;352;48.626;9.238;2023-04-03T12:26:00;8.90;89.60
736;DHT22;352;48.626;9.238;2023-04-03T12:28:28;9.00;90.80
736;DHT22;352;48.626;9.238;2023-04-03T12:30:56;9.10;90.90
736;DHT22;352;48.626;9.238;2023-04-03T12:33:31;9.10;90.70
736;DHT22;352;48.626;9.238;2023-04-03T12:36:06;9.30;89.40
736;DHT22;352;48.626;9.238;2023-04-03T12:39:01;9.30;88.50
736;DHT22;352;48.626;9.238;2023-04-03T12:41:36;9.20;87.70
736;DHT22;352;48.626;9.238;2023-04-03T12:44:18;9.20;88.70
736;DHT22;352;48.626;9.238;2023-04-03T12:46:49;9.10;87.40
736;DHT22;352;48.626;9.238;2023-04-03T12:49:30;9.10;88.70
736;DHT22;352;48.626;9.238;2023-04-03T12:51:59;9.00;87.20
736;DHT22;352;48.626;9.238;2023-04-03T12:54:31;8.90;87.10
736;DHT22;352;48.626;9.238;2023-04-03T12:57:15;8.70;87.30
736;DHT22;352;48.626;9.238;2023-04-03T12:59:43;8.60;88.30
736;DHT22;352;48.626;9.238;2023-04-03T13:02:21;8.50;88.60
736;DHT22;352;48.626;9.238;2023-04-03T13:04:49;8.50;88.10
736;DHT22;352;48.626;9.238;2023-04-03T13:07:22;8.50;87.00
736;DHT22;352;48.626;9.238;2023-04-03T13:10:09;8.60;87.60
736;DHT22;352;48.626;9.238;2023-04-03T13:12:47;8.70;87.00
736;DHT22;352;48.626;9.238;2023-04-03T13:15:17;8.80;88.00
736;DHT22;352;48.626;9.238;2023-04-03T13:17:44;9.00;87.10
736;DHT22;352;48.626;9.238;2023-04-03T13:20:15;9.10;87.70
736;DHT22;352;48.626;9.238;2023-04-03T13:22:49;9.20;87.80
736;DHT22;352;48.626;9.238;2023-04-03T13:25:20;9.30;88.00
736;DHT22;352;48.626;9.238;2023-04-03T13:27:47;9.30;86.00
736;DHT22;352;48.626;9.238;2023-04-03T13:30:28;9.30;86.50
736;DHT22;352;48.626;9.238;2023-04-03T13:32:58;9.30;85.70
736;DHT22;352;48.626;9.238;2023-04-03T13:35:30;9.30;85.60
736;DHT22;352;48.626;9.238;2023-04-03T13:38:01;9.30;84.50
736;DHT22;352;48.626;9.238;2023-04-03T13:40:30;9.20;84.80
736;DHT22;352;48.626;9.238;2023-04-03T13:43:06;9.10;85.10
736;DHT22;352;48.626;9.238;2023-04-03T13:45:54;9.10;85.50
736;DHT22;352;48.626;9.238;2023-04-03T13:48:22;9.10;85.70
736;DHT22;352;48.626;9.238;2023-04-03T13:50:57;9.20;84.60
736;DHT22;352;48.626;9.238;2023-04-03T13:53:25;9.30;84.50
736;DHT22;352;48.626;9.238;2023-04-03T13:55:57;9.40;85.00
736;DHT22;352;48.626;9.238;2023-04-03T13:58:26;9.50;84.30
736;DHT22;352;48.626;9.238;2023-04-03T14:00:55;9.60;83.00
736;DHT22;352;48.626;9.238;2023-04-03T14:03:25;9.50;82.00
736;DHT22;352;48.626;9.238;2023-04-03T14:05:53;9.40;82.60
736;DHT22;352;48.626;9.238;2023-04-03T14:08:20;9.50;84.90
736;DHT22;352;48.626;9.238;2023-04-03T14:10:48;9.40;84.40
736;DHT22;352;48.626;9.238;2023-04-03T14:13:18;9.30;83.00
736;DHT22;352;48.626;9.238;2023-04-03T14:15:46;9.30;84.80
736;DHT22;352;48.626;9.238;2023-04-03T14:18:15;9.20;83.20
736;DHT22;352;48.626;9.238;2023-04-03T14:20:43;9.30;84.50
736;DHT22;352;48.626;9.238;2023-04-03T14:23:10;9.40;84.70
736;DHT22;352;48.626;9.238;2023-04-03T14:25:37;9.50;83.20
736;DHT22;352;48.626;9.238;2023-04-03T14:28:14;9.50;83.00
736;DHT22;352;48.626;9.238;2023-04-03T14:30:43;9.50;83.70
736;DHT22;352;48.626;9.238;2023-04-03T14:33:13;9.40;82.10
736;DHT22;352;48.626;9.238;2023-04-03T14:35:40;9.30;81.20
736;DHT22;352;48.626;9.238;2023-04-03T14:38:16;9.20;82.00
736;DHT22;352;48.626;9.238;2023-04-03T14:40:46;9.10;83.20
736;DHT22;352;48.626;9.238;2023-04-03T14:43:13;8.90;84.00
736;DHT22;352;48.626;9.238;2023-04-03T14:45:41;8.80;83.20
736;DHT22;352;48.626;9.238;2023-04-03T14:48:11;8.80;83.80
736;DHT22;352;48.626;9.238;2023-04-03T14:50:42;8.90;84.20
736;DHT22;352;48.626;9.238;2023-04-03T14:53:11;8.90;82.50
736;DHT22;352;48.626;9.238;2023-04-03T14:55:40;9.00;82.60
736;DHT22;352;48.626;9.238;2023-04-03T14:58:09;8.90;82.30
736;DHT22;352;48.626;9.238;2023-04-03T15:00:38;8.90;82.90
736;DHT22;352;48.626;9.238;2023-04-03T15:03:13;8.90;82.90
736;DHT22;352;48.626;9.238;2023-04-03T15:05:40;9.00;80.00
736;DHT22;352;48.626;9.238;2023-04-03T15:08:19;9.00;78.50
736;DHT22;352;48.626;9.238;2023-04-03T15:10:47;8.90;79.30
736;DHT22;352;48.626;9.238;2023-04-03T15:13:15;8.80;80.40
736;DHT22;352;48.626;9.238;2023-04-03T15:15:42;8.80;80.30
736;DHT22;352;48.626;9.238;2023-04-03T15:18:18;8.70;81.00
736;DHT22;352;48.626;9.238;2023-04-03T15:20:45;8.60;81.70
736;DHT22;352;48.626;9.238;2023-04-03T15:23:14;8.70;82.50
736;DHT22;352;48.626;9.238;2023-04-03T15:25:42;8.70;82.50
736;DHT22;352;48.626;9.238;2023-04-03T15:28:12;8.60;84.10
736;DHT22;352;48.626;9.238;2023-04-03T15:30:41;8.70;84.60
736;DHT22;352;48.626;9.238;2023-04-03T15:33:08;8.60;84.10
736;DHT22;352;48.626;9.238;2023-04-03T15:35:36;8.70;82.90
736;DHT22;352;48.626;9.238;2023-04-03T15:38:03;8.70;82.10
736;DHT22;352;48.626;9.238;2023-04-03T15:40:30;8.60;82.70
736;DHT22;352;48.626;9.238;2023-04-03T15:42:56;8.60;83.20
736;DHT22;352;48.626;9.238;2023-04-03T15:45:23;8.60;82.00
736;DHT22;352;48.626;9.238;2023-04-03T15:47:50;8.60;82.50
736;DHT22;352;48.626;9.238;2023-04-03T15:50:17;8.60;82.60
736;DHT22;352;48.626;9.238;2023-04-03T15:52:45;8.60;81.00
736;DHT22;352;48.626;9.238;2023-04-03T15:55:12;8.60;81.00
736;DHT22;352;48.626;9.238;2023-04-03T15:57:39;8.60;83.80
736;DHT22;352;48.626;9.238;2023-04-03T16:00:09;8.60;84.40
736;DHT22;352;48.626;9.238;2023-04-03T16:02:36;8.60;84.00
736;DHT22;352;48.626;9.238;2023-04-03T16:05:03;8.60;85.00
736;DHT22;352;48.626;9.238;2023-04-03T16:07:30;8.60;85.80
736;DHT22;352;48.626;9.238;2023-04-03T16:10:06;8.60;86.00
736;DHT22;352;48.626;9.238;2023-04-03T16:16:20;8.70;87.10
736;DHT22;352;48.626;9.238;2023-04-03T16:19:04;8.70;86.30
736;DHT22;352;48.626;9.238;2023-04-03T16:21:31;8.60;85.40
736;DHT22;352;48.626;9.238;2023-04-03T16:23:59;8.50;84.90
736;DHT22;352;48.626;9.238;2023-04-03T16:26:30;8.40;82.50
736;DHT22;352;48.626;9.238;2023-04-03T16:29:00;8.30;82.90
736;DHT22;352;48.626;9.238;2023-04-03T16:31:27;8.30;83.30
736;DHT22;352;48.626;9.238;2023-04-03T16:33:55;8.30;83.20
736;DHT22;352;48.626;9.238;2023-04-03T16:36:23;8.20;82.80
736;DHT22;352;48.626;9.238;2023-04-03T16:38:50;8.10;81.90
736;DHT22;352;48.626;9.238;2023-04-03T16:41:17;8.00;83.30
736;DHT22;352;48.626;9.238;2023-04-03T16:43:45;7.90;83.60
736;DHT22;352;48.626;9.238;2023-04-03T16:46:12;7.90;83.70
736;DHT22;352;48.626;9.238;2023-04-03T16:48:39;7.80;85.10
736;DHT22;352;48.626;9.238;2023-04-03T16:51:05;7.90;82.50
736;DHT22;352;48.626;9.238;2023-04-03T16:53:32;7.80;83.20
736;DHT22;352;48.626;9.238;2023-04-03T16:55:59;7.80;84.00
736;DHT22;352;48.626;9.238;2023-04-03T16:58:25;7.90;86.10
736;DHT22;352;48.626;9.238;2023-04-03T17:00:54;7.80;83.60
736;DHT22;352;48.626;9.238;2023-04-03T17:03:20;7.90;83.50
736;DHT22;352;48.626;9.238;2023-04-03T17:05:48;7.80;83.10
736;DHT22;352;48.626;9.238;2023-04-03T17:08:16;7.90;81.20
736;DHT22;352;48.626;9.238;2023-04-03T17:10:43;7.90;82.40
736;DHT22;352;48.626;9.238;2023-04-03T17:13:13;7.80;80.60
736;DHT22;352;48.626;9.238;2023-04-03T17:15:42;7.80;81.00
736;DHT22;352;48.626;9.238;2023-04-03T17:18:10;7.80;82.70
736;DHT22;352;48.626;9.238;2023-04-03T17:20:37;7.80;82.00